Time;durP1;ratioP1;P1;durP2;ratioP2;P2;SDS_P1;SDS_P2;PMS_P1;PMS_P2;Temp;Humidity;BMP_temperature;BMP_pressure;BME280_temperature;BME280_humidity;BME280_pressure;Samples;Min_cycle;Max_cycle;Signal;HPM_P1;HPM_P2
2022/12/05 00:02:04;;;;;;;33.13;17.45;;;2.40;99.90;;;;;;7375806;32;20102;-60
2022/12/05 00:06:06;;;;;;;36.38;19.00;;;2.40;99.90;;;;;;7375855;32;20133;-59
2022/12/05 00:10:08;;;;;;;32.13;18.17;;;2.40;99.90;;;;;;7381238;32;20589;-59
2022/12/05 00:14:11;;;;;;;36.45;18.05;;;2.40;99.90;;;;;;7375021;32;20155;-59
2022/12/05 00:18:13;;;;;;;33.50;18.67;;;2.40;99.90;;;;;;7368363;32;20103;-60
2022/12/05 00:22:15;;;;;;;34.35;18.50;;;2.40;99.90;;;;;;7372805;32;20249;-59
2022/12/05 00:26:17;;;;;;;35.42;18.37;;;2.50;99.90;;;;;;7372235;32;20612;-59
2022/12/05 00:30:19;;;;;;;37.50;19.08;;;2.40;99.90;;;;;;7373712;32;20107;-59
2022/12/05 00:34:20;;;;;;;31.75;18.25;;;2.50;99.90;;;;;;7372817;32;20743;-60
2022/12/05 00:38:22;;;;;;;35.90;18.25;;;2.50;99.90;;;;;;7368724;32;20145;-60
2022/12/05 00:42:24;;;;;;;33.97;17.95;;;2.60;99.90;;;;;;7372488;32;20558;-59
2022/12/05 00:46:28;;;;;;;35.58;18.20;;;2.50;99.90;;;;;;7377178;32;20466;-59
2022/12/05 00:50:29;;;;;;;33.20;17.48;;;2.50;99.90;;;;;;7377259;32;20575;-59
2022/12/05 00:54:31;;;;;;;33.97;18.20;;;2.50;99.90;;;;;;7375860;32;20125;-59
2022/12/05 00:58:33;;;;;;;34.47;17.52;;;2.60;99.90;;;;;;7381861;32;20156;-60
2022/12/05 01:02:35;;;;;;;36.80;18.17;;;2.60;99.90;;;;;;7375626;32;20107;-59
2022/12/05 01:06:37;;;;;;;31.35;17.92;;;2.50;99.90;;;;;;7372167;32;20198;-60
2022/12/05 01:10:39;;;;;;;35.13;17.50;;;2.50;99.90;;;;;;7367397;32;20133;-60
2022/12/05 01:14:40;;;;;;;36.33;18.98;;;2.50;99.90;;;;;;7371292;32;20099;-60
2022/12/05 01:18:42;;;;;;;31.95;17.00;;;2.50;99.90;;;;;;7373157;32;20221;-59
2022/12/05 01:22:44;;;;;;;36.72;18.12;;;2.50;99.90;;;;;;7377365;32;20126;-59
2022/12/05 01:26:46;;;;;;;32.17;17.40;;;2.50;99.90;;;;;;7375440;32;20115;-60
2022/12/05 01:30:49;;;;;;;33.08;16.95;;;2.50;99.90;;;;;;7371173;32;20201;-59
2022/12/05 01:34:50;;;;;;;34.55;17.48;;;2.50;99.90;;;;;;7370402;32;20107;-59
2022/12/05 01:38:53;;;;;;;34.38;18.33;;;2.40;99.90;;;;;;7372332;32;20175;-59
2022/12/05 01:42:55;;;;;;;34.13;18.62;;;2.50;99.90;;;;;;7377895;32;20119;-59
2022/12/05 01:46:57;;;;;;;37.22;18.52;;;2.50;99.90;;;;;;7368104;32;20529;-60
2022/12/05 01:50:59;;;;;;;30.98;17.87;;;2.50;99.90;;;;;;7377284;32;20741;-60
2022/12/05 01:55:10;;;;;;;33.85;17.42;;;2.50;99.90;;;;;;7382359;32;20496;-59
2022/12/05 01:59:13;;;;;;;29.52;17.20;;;2.60;99.90;;;;;;7382939;32;20167;-59
2022/12/05 02:03:17;;;;;;;29.90;16.27;;;2.60;99.90;;;;;;7377844;32;20510;-59
2022/12/05 02:07:19;;;;;;;34.90;18.33;;;2.60;99.90;;;;;;7382671;32;20107;-59
2022/12/05 02:11:23;;;;;;;31.45;17.95;;;2.50;99.90;;;;;;7376038;32;20116;-59
2022/12/05 02:15:49;;;;;;;33.85;18.27;;;2.50;99.90;;;;;;7371217;32;20641;-60
2022/12/05 02:20:13;;;;;;;35.42;17.30;;;2.50;99.90;;;;;;7377876;32;20782;-59
2022/12/05 02:24:43;;;;;;;31.80;18.50;;;2.50;99.90;;;;;;7378891;32;20839;-60
2022/12/05 02:29:03;;;;;;;32.40;18.27;;;2.50;99.90;;;;;;7372371;32;20158;-59
2022/12/05 02:33:14;;;;;;;29.10;17.48;;;2.60;99.90;;;;;;7375392;32;20122;-60
2022/12/05 02:37:57;;;;;;;32.60;18.02;;;2.50;99.90;;;;;;7369530;32;20550;-59
2022/12/05 02:42:11;;;;;;;33.47;18.55;;;2.50;99.90;;;;;;7376542;32;20130;-59
2022/12/05 02:46:19;;;;;;;31.40;18.00;;;2.50;99.90;;;;;;7377164;32;20564;-60
2022/12/05 02:50:23;;;;;;;31.08;17.85;;;2.60;99.90;;;;;;7375613;32;20227;-59
2022/12/05 02:54:30;;;;;;;37.13;19.42;;;2.60;99.90;;;;;;7376773;32;20111;-59
2022/12/05 02:58:37;;;;;;;36.95;18.30;;;2.60;99.90;;;;;;7378816;32;20537;-60
2022/12/05 03:02:40;;;;;;;;;;;2.60;99.90;;;;;;7377217;32;20146;-59
2022/12/05 03:06:53;;;;;;;32.35;18.00;;;2.50;99.90;;;;;;7371215;32;20022;-59
2022/12/05 03:10:57;;;;;;;34.28;18.42;;;2.60;99.90;;;;;;7374254;32;20130;-60
2022/12/05 03:15:15;;;;;;;31.15;16.58;;;2.50;99.90;;;;;;7384892;32;20180;-60
2022/12/05 03:19:29;;;;;;;34.83;18.48;;;2.60;99.90;;;;;;7373781;32;20114;-59
2022/12/05 03:23:38;;;;;;;34.08;18.12;;;2.60;99.90;;;;;;7366775;32;20135;-60
2022/12/05 03:27:58;;;;;;;32.90;18.20;;;2.60;99.90;;;;;;7374540;32;20103;-60
2022/12/05 03:32:26;;;;;;;38.10;19.00;;;2.60;99.90;;;;;;7373276;32;20596;-60
2022/12/05 03:36:36;;;;;;;35.22;19.17;;;2.60;99.90;;;;;;7366859;32;20190;-59
2022/12/05 03:40:51;;;;;;;31.45;17.98;;;2.60;99.90;;;;;;7372429;32;20227;-60
2022/12/05 03:45:15;;;;;;;33.10;19.42;;;2.60;99.90;;;;;;7371516;32;20111;-60
2022/12/05 03:49:29;;;;;;;30.15;18.02;;;2.60;99.90;;;;;;7374853;32;20107;-60
2022/12/05 03:53:41;;;;;;;36.22;19.45;;;2.50;99.90;;;;;;7367949;32;20099;-60
2022/12/05 03:57:50;;;;;;;32.88;18.30;;;2.50;99.90;;;;;;7372928;32;20825;-60
2022/12/05 04:01:54;;;;;;;33.55;18.58;;;2.60;99.90;;;;;;7374786;32;20138;-59
2022/12/05 04:06:00;;;;;;;30.15;17.30;;;2.60;99.90;;;;;;7375156;32;20137;-60
2022/12/05 04:10:08;;;;;;;33.30;17.25;;;2.60;99.90;;;;;;7373308;32;20107;-58
2022/12/05 04:14:18;;;;;;;33.78;16.77;;;2.60;99.90;;;;;;7372221;32;20585;-58
2022/12/05 04:18:23;;;;;;;29.25;16.73;;;2.60;99.90;;;;;;7372289;32;20222;-58
2022/12/05 04:22:26;;;;;;;30.58;17.80;;;2.70;99.90;;;;;;7375293;32;20134;-59
2022/12/05 04:26:31;;;;;;;26.98;16.95;;;2.60;99.90;;;;;;7374296;32;20125;-58
2022/12/05 04:30:48;;;;;;;29.48;17.05;;;2.60;99.90;;;;;;7369218;32;20229;-58
2022/12/05 04:34:56;;;;;;;32.83;17.48;;;2.60;99.90;;;;;;7373378;32;20141;-58
2022/12/05 04:39:16;;;;;;;35.22;18.35;;;2.50;99.90;;;;;;7375634;32;20190;-58
2022/12/05 04:43:20;;;;;;;30.37;17.35;;;2.50;99.90;;;;;;7373486;32;20106;-59
2022/12/05 04:47:26;;;;;;;34.97;17.45;;;2.60;99.90;;;;;;7373875;32;20113;-59
2022/12/05 04:51:33;;;;;;;33.92;18.52;;;2.50;99.90;;;;;;7379674;32;20111;-58
2022/12/05 04:55:38;;;;;;;30.20;17.42;;;2.60;99.90;;;;;;7373595;32;20137;-58
2022/12/05 04:59:40;;;;;;;33.70;18.12;;;2.50;99.90;;;;;;7377584;32;20145;-58
2022/12/05 05:03:53;;;;;;;36.88;19.25;;;2.60;99.90;;;;;;7371391;32;20107;-60
2022/12/05 05:07:55;;;;;;;36.80;19.52;;;2.50;99.90;;;;;;7371942;32;20130;-59
2022/12/05 05:11:56;;;;;;;35.33;18.42;;;2.50;99.90;;;;;;7374856;32;20127;-58
2022/12/05 05:15:58;;;;;;;35.35;18.58;;;2.50;99.90;;;;;;7373394;32;20335;-58
2022/12/05 05:24:22;;;;;;;33.83;19.08;;;2.50;99.90;;;;;;7371676;32;20167;-59
2022/12/05 05:28:24;;;;;;;33.47;17.80;;;2.60;99.90;;;;;;7376279;32;20538;-59
2022/12/05 05:32:25;;;;;;;36.10;18.17;;;2.50;99.90;;;;;;7375804;32;20107;-59
2022/12/05 05:36:27;;;;;;;34.55;18.48;;;2.50;99.90;;;;;;7372291;32;20140;-58
2022/12/05 05:40:29;;;;;;;30.27;17.98;;;2.50;99.90;;;;;;7378470;32;20106;-58
2022/12/05 05:44:30;;;;;;;31.35;18.00;;;2.50;99.90;;;;;;7380006;32;20130;-58
2022/12/05 05:48:32;;;;;;;29.60;16.52;;;2.50;99.90;;;;;;7375769;32;20135;-60
2022/12/05 05:52:35;;;;;;;34.20;18.80;;;2.50;99.90;;;;;;7371852;32;20503;-58
2022/12/05 05:56:38;;;;;;;27.30;16.27;;;2.50;99.90;;;;;;7374357;32;20210;-59
2022/12/05 06:00:40;;;;;;;33.45;16.75;;;2.50;99.90;;;;;;7372270;32;20107;-59
2022/12/05 06:04:42;;;;;;;32.53;17.35;;;2.50;99.90;;;;;;7371134;32;20216;-59
2022/12/05 06:08:44;;;;;;;35.17;18.27;;;2.60;99.90;;;;;;7377386;32;20175;-58
2022/12/05 06:12:46;;;;;;;30.42;17.35;;;2.60;99.90;;;;;;7374345;32;20130;-58
2022/12/05 06:16:48;;;;;;;26.83;16.50;;;2.60;99.90;;;;;;7374209;32;20210;-58
2022/12/05 06:20:55;;;;;;;30.37;18.27;;;2.50;99.90;;;;;;7378227;32;20584;-58
2022/12/05 06:24:57;;;;;;;28.98;17.77;;;2.60;99.90;;;;;;7373296;32;20542;-58
2022/12/05 06:28:59;;;;;;;30.90;16.87;;;2.60;99.90;;;;;;7377859;32;20637;-58
2022/12/05 06:33:00;;;;;;;30.37;16.98;;;2.60;99.90;;;;;;7376992;32;20536;-58
2022/12/05 06:37:02;;;;;;;30.77;17.33;;;2.50;99.90;;;;;;7377923;32;20744;-59
2022/12/05 06:41:09;;;;;;;26.73;16.50;;;2.40;99.90;;;;;;7376930;32;20148;-59
2022/12/05 06:45:11;;;;;;;38.23;20.70;;;2.40;99.90;;;;;;7382059;32;20531;-58
2022/12/05 06:49:13;;;;;;;32.83;19.73;;;2.40;99.90;;;;;;7372055;32;20110;-58
2022/12/05 06:53:14;;;;;;;31.17;19.80;;;2.40;99.90;;;;;;7370954;32;20470;-59
2022/12/05 06:57:16;;;;;;;32.38;19.10;;;2.40;99.90;;;;;;7369571;32;20099;-59
2022/12/05 07:01:41;;;;;;;28.48;17.70;;;2.30;99.90;;;;;;7375402;32;20224;-58
2022/12/05 07:05:43;;;;;;;30.77;16.52;;;2.30;99.90;;;;;;7369382;32;20185;-59
2022/12/05 07:09:47;;;;;;;27.17;15.73;;;2.20;99.90;;;;;;7379678;32;20107;-59
2022/12/05 07:13:48;;;;;;;27.02;16.50;;;2.20;99.90;;;;;;7374833;32;20909;-59
2022/12/05 07:17:50;;;;;;;26.58;16.92;;;2.20;99.90;;;;;;7376338;32;20127;-58
2022/12/05 07:21:52;;;;;;;28.40;16.33;;;2.20;99.90;;;;;;7377143;32;20111;-61
2022/12/05 07:25:53;;;;;;;28.70;16.80;;;2.10;99.90;;;;;;7379305;32;20130;-59
2022/12/05 07:29:55;;;;;;;29.90;16.58;;;2.10;99.90;;;;;;7370419;32;20111;-59
2022/12/05 07:33:58;;;;;;;25.35;15.70;;;2.10;99.90;;;;;;7372485;32;20111;-59
2022/12/05 07:38:00;;;;;;;22.80;15.15;;;2.10;99.90;;;;;;7374475;32;20179;-59
2022/12/05 07:42:01;;;;;;;24.92;15.32;;;2.10;99.90;;;;;;7374886;32;20138;-59
2022/12/05 07:46:05;;;;;;;24.90;15.15;;;2.00;99.90;;;;;;7373676;32;20150;-59
2022/12/05 07:50:07;;;;;;;21.70;15.20;;;1.90;99.90;;;;;;7370759;32;20130;-60
2022/12/05 07:54:08;;;;;;;21.80;15.60;;;1.90;99.90;;;;;;7370406;32;20569;-59
2022/12/05 07:58:10;;;;;;;25.88;14.73;;;1.90;99.90;;;;;;7375206;32;20125;-60
2022/12/05 08:02:12;;;;;;;26.58;15.65;;;1.80;99.90;;;;;;7371920;32;20106;-61
2022/12/05 08:06:20;;;;;;;26.15;15.20;;;1.80;99.90;;;;;;7369043;32;20119;-60
2022/12/05 08:10:22;;;;;;;27.40;15.52;;;1.90;99.90;;;;;;7369900;32;20102;-61
2022/12/05 08:14:24;;;;;;;23.70;13.93;;;1.90;99.90;;;;;;7374400;32;20133;-60
2022/12/05 08:18:25;;;;;;;25.95;14.87;;;1.90;99.90;;;;;;7378228;32;20130;-59
2022/12/05 08:22:28;;;;;;;24.00;14.18;;;1.90;99.90;;;;;;7372790;32;20118;-59
2022/12/05 08:26:31;;;;;;;25.00;15.05;;;1.90;99.90;;;;;;7368772;32;20512;-59
2022/12/05 08:30:33;;;;;;;22.17;13.82;;;2.00;99.90;;;;;;7377461;32;20164;-59
2022/12/05 08:34:35;;;;;;;22.75;14.35;;;2.00;99.90;;;;;;7372968;32;20119;-59
2022/12/05 08:38:37;;;;;;;21.70;13.88;;;2.00;99.90;;;;;;7378284;32;20269;-59
2022/12/05 08:42:39;;;;;;;23.23;14.20;;;2.00;99.90;;;;;;7381486;32;20317;-59
2022/12/05 08:46:43;;;;;;;20.35;12.77;;;2.00;99.90;;;;;;7374730;32;20198;-60
2022/12/05 08:50:45;;;;;;;21.65;13.93;;;2.10;99.90;;;;;;7366627;32;20492;-60
2022/12/05 08:54:47;;;;;;;20.15;13.48;;;2.10;99.90;;;;;;7375516;32;20129;-60
2022/12/05 08:58:49;;;;;;;20.52;13.55;;;2.10;99.90;;;;;;7372492;32;20254;-60
2022/12/05 09:02:51;;;;;;;18.02;12.37;;;2.00;99.90;;;;;;7375115;32;20107;-60
2022/12/05 09:06:53;;;;;;;22.20;13.88;;;2.10;99.90;;;;;;7365156;32;20111;-60
2022/12/05 09:10:54;;;;;;;21.37;13.73;;;2.10;99.90;;;;;;7373719;32;20131;-61
2022/12/05 09:14:56;;;;;;;20.42;13.93;;;2.10;99.90;;;;;;7367192;32;20125;-60
2022/12/05 09:18:58;;;;;;;21.37;14.77;;;2.10;99.90;;;;;;7365591;32;20628;-60
2022/12/05 09:23:00;;;;;;;20.45;13.00;;;2.10;99.90;;;;;;7369502;32;20127;-60
2022/12/05 09:27:02;;;;;;;20.37;13.75;;;2.20;99.90;;;;;;7371265;32;20497;-61
2022/12/05 09:31:15;;;;;;;20.00;12.77;;;2.30;99.90;;;;;;7366243;32;20641;-61
2022/12/05 09:35:17;;;;;;;19.67;12.73;;;2.40;99.90;;;;;;7365784;32;20187;-60
2022/12/05 09:39:19;;;;;;;20.25;12.23;;;2.50;99.90;;;;;;7368430;32;20162;-60
2022/12/05 09:43:50;;;;;;;19.30;12.65;;;2.50;99.90;;;;;;7370228;32;20133;-59
2022/12/05 09:47:57;;;;;;;17.67;12.57;;;2.40;99.90;;;;;;7371846;32;20241;-60
2022/12/05 09:52:00;;;;;;;19.92;12.40;;;2.40;99.90;;;;;;7371340;32;20127;-61
2022/12/05 09:56:07;;;;;;;18.00;12.60;;;2.50;99.90;;;;;;7371834;32;20114;-60
2022/12/05 10:00:10;;;;;;;16.95;12.70;;;2.30;99.90;;;;;;7373134;32;20177;-61
2022/12/05 10:04:49;;;;;;;16.00;11.95;;;2.50;99.90;;;;;;7369891;32;20195;-62
2022/12/05 10:08:58;;;;;;;16.35;12.13;;;2.50;99.90;;;;;;7367134;32;20130;-59
2022/12/05 10:13:26;;;;;;;15.60;12.05;;;2.50;99.90;;;;;;7368984;32;20232;-60
2022/12/05 10:17:31;;;;;;;19.37;14.07;;;2.50;99.90;;;;;;7369681;32;20099;-59
2022/12/05 10:21:38;;;;;;;18.65;12.57;;;2.40;99.90;;;;;;7368095;32;20193;-60
2022/12/05 10:25:41;;;;;;;21.08;13.18;;;2.40;99.90;;;;;;7380419;32;20588;-60
2022/12/05 10:30:11;;;;;;;20.70;13.75;;;2.30;99.90;;;;;;7380380;32;20111;-60
2022/12/05 10:34:28;;;;;;;17.00;12.52;;;2.30;99.90;;;;;;7367667;32;20121;-60
2022/12/05 10:38:31;;;;;;;18.70;12.90;;;2.40;99.90;;;;;;7374201;32;20181;-60
2022/12/05 10:42:34;;;;;;;17.83;13.10;;;2.40;99.90;;;;;;7375259;32;20165;-60
2022/12/05 10:46:36;;;;;;;17.17;13.95;;;2.30;99.90;;;;;;7371788;32;20107;-62
2022/12/05 10:50:38;;;;;;;18.65;13.05;;;2.40;99.90;;;;;;7381417;32;20104;-60
2022/12/05 10:54:46;;;;;;;17.75;13.07;;;2.30;99.90;;;;;;7380547;32;20194;-60
2022/12/05 10:58:56;;;;;;;17.77;13.40;;;2.30;99.90;;;;;;7373910;32;20136;-59
2022/12/05 11:03:03;;;;;;;20.70;13.68;;;2.30;99.90;;;;;;7369689;32;20125;-60
2022/12/05 11:07:05;;;;;;;18.42;13.73;;;2.30;99.90;;;;;;7376603;32;20123;-58
2022/12/05 11:11:18;;;;;;;18.58;12.65;;;2.30;99.90;;;;;;7376165;32;20238;-58
2022/12/05 11:15:24;;;;;;;15.98;12.10;;;2.50;99.90;;;;;;7377577;32;20601;-59
2022/12/05 11:19:35;;;;;;;14.75;11.75;;;2.50;99.90;;;;;;7373190;32;20186;-59
2022/12/05 11:23:38;;;;;;;15.75;11.90;;;2.40;99.90;;;;;;7377199;32;20231;-58
2022/12/05 11:27:39;;;;;;;13.70;10.57;;;2.60;99.90;;;;;;7371513;32;20205;-60
2022/12/05 11:31:50;;;;;;;16.10;11.57;;;2.50;99.90;;;;;;7372902;32;20129;-60
2022/12/05 11:35:54;;;;;;;13.43;10.95;;;2.40;99.90;;;;;;7370174;32;20493;-60
2022/12/05 11:39:56;;;;;;;13.02;10.15;;;2.50;99.90;;;;;;7374655;32;20100;-60
2022/12/05 11:44:10;;;;;;;14.77;10.90;;;2.60;99.90;;;;;;7373064;32;20111;-59
2022/12/05 11:48:31;;;;;;;17.20;10.98;;;2.60;99.90;;;;;;7365155;32;20122;-59
2022/12/05 11:52:56;;;;;;;13.60;10.60;;;2.60;99.90;;;;;;7365373;32;20206;-60
2022/12/05 11:57:13;;;;;;;12.45;10.05;;;2.50;99.90;;;;;;7373712;32;20103;-59
2022/12/05 12:01:57;;;;;;;12.70;9.75;;;2.50;99.90;;;;;;7375002;32;20110;-60
2022/12/05 12:06:38;;;;;;;13.20;10.15;;;2.50;99.90;;;;;;7370607;32;20137;-59
2022/12/05 12:10:42;;;;;;;11.73;8.90;;;2.30;99.90;;;;;;7375403;32;20102;-59
2022/12/05 12:14:47;;;;;;;21.60;14.40;;;2.30;99.90;;;;;;7375483;32;20107;-60
2022/12/05 12:19:23;;;;;;;14.02;9.90;;;2.30;99.90;;;;;;7370655;32;20199;-59
2022/12/05 12:23:33;;;;;;;15.77;10.43;;;2.30;99.90;;;;;;7379111;32;20122;-60
2022/12/05 12:27:41;;;;;;;14.50;10.90;;;2.20;99.90;;;;;;7372147;32;20122;-60
2022/12/05 12:32:06;;;;;;;13.85;10.23;;;2.10;99.90;;;;;;7369161;32;20149;-60
2022/12/05 12:36:34;;;;;;;13.23;9.98;;;2.10;99.90;;;;;;7365610;32;20122;-61
2022/12/05 12:40:49;;;;;;;12.68;9.75;;;1.90;99.90;;;;;;7377134;32;20742;-62
2022/12/05 12:45:05;;;;;;;14.60;10.88;;;1.90;99.90;;;;;;7371468;32;20612;-61
2022/12/05 12:49:28;;;;;;;12.52;9.73;;;1.80;99.90;;;;;;7365055;32;20129;-61
2022/12/05 12:53:43;;;;;;;11.50;8.98;;;1.80;99.90;;;;;;7374792;32;20470;-62
2022/12/05 12:57:54;;;;;;;11.95;9.45;;;1.70;99.90;;;;;;7375414;32;20129;-61
2022/12/05 13:02:17;;;;;;;11.12;8.60;;;1.60;99.90;;;;;;7373139;32;20111;-63
2022/12/05 13:06:59;;;;;;;11.48;8.98;;;1.50;99.90;;;;;;7376909;32;20119;-61
2022/12/05 13:11:07;;;;;;;11.52;8.90;;;1.40;99.90;;;;;;7374208;32;20189;-62
2022/12/05 13:15:16;;;;;;;;;;;1.30;99.90;;;;;;7372943;32;20174;-62
2022/12/05 13:19:51;;;;;;;10.20;7.80;;;1.30;99.90;;;;;;7368596;32;20160;-62
2022/12/05 13:24:02;;;;;;;10.93;7.93;;;1.20;99.90;;;;;;7332156;32;20146;-62
2022/12/05 13:28:15;;;;;;;11.65;8.43;;;1.10;99.90;;;;;;7374164;32;20253;-62
2022/12/05 13:32:39;;;;;;;12.75;8.68;;;1.20;99.90;;;;;;7368776;32;20099;-62
2022/12/05 13:45:22;;;;;;;11.43;8.90;;;1.10;99.90;;;;;;7372667;32;20245;-63
2022/12/05 13:49:31;;;;;;;12.15;9.07;;;1.20;99.90;;;;;;7375270;32;20115;-62
2022/12/05 13:53:59;;;;;;;12.55;8.68;;;1.20;99.90;;;;;;7376239;32;20123;-61
2022/12/05 13:58:22;;;;;;;9.07;7.35;;;1.10;99.90;;;;;;7369566;32;20130;-59
2022/12/05 14:02:44;;;;;;;9.23;7.37;;;1.20;99.90;;;;;;7348643;32;20171;-62
2022/12/05 14:06:51;;;;;;;9.73;8.05;;;1.10;99.90;;;;;;7378422;32;20493;-59
2022/12/05 14:10:53;;;;;;;12.13;7.90;;;1.20;99.90;;;;;;7374693;32;20103;-59
2022/12/05 14:14:59;;;;;;;12.18;8.35;;;1.20;99.90;;;;;;7372631;32;20255;-60
2022/12/05 14:19:39;;;;;;;11.77;8.57;;;1.10;99.90;;;;;;7374183;32;22102;-60
2022/12/05 14:23:50;;;;;;;10.05;8.32;;;1.10;99.90;;;;;;7364584;32;20491;-60
2022/12/05 14:28:05;;;;;;;12.77;9.07;;;1.10;99.90;;;;;;7376585;32;20622;-62
2022/12/05 14:32:31;;;;;;;10.45;9.10;;;1.10;99.90;;;;;;7373907;32;20145;-61
2022/12/05 14:36:32;;;;;;;14.90;10.18;;;1.10;99.90;;;;;;7379366;32;20226;-62
2022/12/05 14:40:40;;;;;;;14.38;9.95;;;1.10;99.90;;;;;;7373685;32;20115;-61
2022/12/05 14:44:46;;;;;;;15.82;11.82;;;1.10;99.90;;;;;;7373871;32;20224;-60
2022/12/05 14:48:48;;;;;;;16.98;12.50;;;1.10;99.90;;;;;;7382095;32;20126;-60
2022/12/05 14:53:14;;;;;;;14.57;10.82;;;1.10;99.90;;;;;;7372095;32;20099;-59
2022/12/05 14:57:16;;;;;;;16.17;9.88;;;0.90;99.90;;;;;;7377749;32;20125;-63
2022/12/05 15:01:20;;;;;;;13.57;10.25;;;0.90;99.90;;;;;;7373820;32;20163;-60
2022/12/05 15:05:33;;;;;;;12.75;9.73;;;0.90;99.90;;;;;;7372990;32;20228;-63
2022/12/05 15:09:55;;;;;;;14.65;9.48;;;0.90;99.90;;;;;;7378605;32;20176;-61
2022/12/05 15:14:21;;;;;;;14.93;11.35;;;0.90;99.90;;;;;;7371179;32;20110;-61
2022/12/05 15:18:44;;;;;;;16.45;12.80;;;0.90;99.90;;;;;;7373598;32;20209;-62
2022/12/05 15:22:46;;;;;;;17.58;12.18;;;0.90;99.90;;;;;;7370719;32;20111;-62
2022/12/05 15:26:53;;;;;;;19.52;12.37;;;0.80;99.90;;;;;;7379065;32;20111;-65
2022/12/05 15:30:56;;;;;;;16.50;12.07;;;0.70;99.90;;;;;;7372734;32;20129;-61
2022/12/05 15:35:07;;;;;;;16.42;11.60;;;0.70;99.90;;;;;;7375960;32;20198;-61
2022/12/05 15:39:25;;;;;;;18.65;13.02;;;0.70;99.90;;;;;;7370094;32;20182;-64
2022/12/05 15:43:30;;;;;;;14.80;12.07;;;0.70;99.90;;;;;;7377883;32;20107;-63
2022/12/05 15:47:32;;;;;;;18.60;13.07;;;0.60;99.90;;;;;;7369178;32;20519;-65
2022/12/05 15:51:36;;;;;;;18.08;12.90;;;0.70;99.90;;;;;;7373212;32;20125;-62
2022/12/05 15:55:44;;;;;;;18.08;12.65;;;0.70;99.90;;;;;;7379659;32;20710;-62
2022/12/05 15:59:52;;;;;;;19.45;13.38;;;0.70;99.90;;;;;;7372133;32;20107;-63
2022/12/05 16:03:57;;;;;;;18.75;13.13;;;0.70;99.90;;;;;;7378248;32;20133;-63
2022/12/05 16:08:01;;;;;;;17.15;13.77;;;0.70;99.90;;;;;;7376281;32;20125;-62
2022/12/05 16:12:14;;;;;;;17.33;13.77;;;0.70;99.90;;;;;;7375417;32;20308;-61
2022/12/05 16:16:21;;;;;;;19.85;14.35;;;0.70;99.90;;;;;;7371330;32;20111;-62
2022/12/05 16:20:28;;;;;;;19.90;14.15;;;0.80;99.90;;;;;;7375425;32;20270;-62
2022/12/05 16:24:31;;;;;;;17.48;13.13;;;0.80;99.90;;;;;;7369647;32;20812;-62
2022/12/05 16:28:33;;;;;;;15.65;12.70;;;0.80;99.90;;;;;;7371554;32;20226;-62
2022/12/05 16:32:35;;;;;;;17.30;12.37;;;0.80;99.90;;;;;;7376004;32;20139;-62
2022/12/05 16:36:46;;;;;;;16.52;13.23;;;0.80;99.90;;;;;;7372156;32;20233;-62
2022/12/05 16:40:47;;;;;;;18.37;13.52;;;0.80;99.90;;;;;;7375804;32;20133;-63
2022/12/05 16:45:00;;;;;;;18.70;13.82;;;0.80;99.90;;;;;;7378798;32;21850;-60
2022/12/05 16:49:28;;;;;;;17.95;12.77;;;0.80;99.90;;;;;;7372846;32;20602;-61
2022/12/05 16:53:31;;;;;;;;;;;0.80;99.90;;;;;;7367610;32;20432;-60
2022/12/05 16:57:33;;;;;;;22.10;16.27;;;0.80;99.90;;;;;;7376043;32;20112;-60
2022/12/05 17:01:34;;;;;;;22.13;17.20;;;0.80;99.90;;;;;;7372162;32;20205;-59
2022/12/05 17:05:40;;;;;;;19.95;14.93;;;0.80;99.90;;;;;;7374511;32;20226;-60
2022/12/05 17:09:41;;;;;;;17.20;13.07;;;0.80;99.90;;;;;;7378102;32;20107;-60
2022/12/05 17:13:46;;;;;;;19.65;14.35;;;0.80;99.90;;;;;;7370609;32;20216;-61
2022/12/05 17:17:48;;;;;;;20.40;14.40;;;0.80;99.90;;;;;;7372574;32;20186;-61
2022/12/05 17:21:49;;;;;;;16.20;12.40;;;0.80;99.90;;;;;;7380714;32;20459;-60
2022/12/05 17:25:53;;;;;;;18.83;13.00;;;0.80;99.90;;;;;;7382812;32;20116;-60
2022/12/05 17:29:55;;;;;;;17.10;12.95;;;0.80;99.90;;;;;;7379554;32;20133;-60
2022/12/05 17:33:57;;;;;;;19.02;12.98;;;0.80;99.90;;;;;;7382643;32;20098;-60
2022/12/05 17:37:58;;;;;;;20.35;14.05;;;0.80;99.90;;;;;;7385513;32;20111;-60
2022/12/05 17:42:00;;;;;;;21.23;14.48;;;0.80;99.90;;;;;;7379332;32;20111;-61
2022/12/05 17:46:02;;;;;;;21.08;14.35;;;0.80;99.90;;;;;;7377492;32;20149;-61
2022/12/05 17:50:05;;;;;;;21.05;15.48;;;0.80;99.90;;;;;;7381846;32;20198;-60
2022/12/05 17:54:07;;;;;;;24.48;16.15;;;0.80;99.90;;;;;;7379435;32;22384;-61
2022/12/05 17:58:09;;;;;;;21.73;15.73;;;0.80;99.90;;;;;;7379226;32;20114;-61
2022/12/05 18:02:11;;;;;;;22.85;15.98;;;0.80;99.90;;;;;;7379276;32;20113;-61
2022/12/05 18:06:13;;;;;;;23.42;15.55;;;0.80;99.90;;;;;;7374845;32;20219;-60
2022/12/05 18:10:18;;;;;;;22.87;15.57;;;0.80;99.90;;;;;;7383432;32;20118;-60
2022/12/05 18:14:19;;;;;;;23.62;15.45;;;0.90;99.90;;;;;;7381941;32;20186;-59
2022/12/05 18:18:21;;;;;;;21.95;14.98;;;0.80;99.90;;;;;;7385511;32;20111;-59
2022/12/05 18:22:25;;;;;;;22.50;14.77;;;0.80;99.90;;;;;;7377287;32;20217;-60
2022/12/05 18:26:26;;;;;;;22.08;15.82;;;0.90;99.90;;;;;;7376521;32;20107;-60
2022/12/05 18:30:28;;;;;;;21.00;14.32;;;0.80;99.90;;;;;;7382579;32;20107;-61
2022/12/05 18:34:30;;;;;;;21.42;14.52;;;0.90;99.90;;;;;;7365662;32;20737;-60
2022/12/05 18:38:31;;;;;;;20.05;14.25;;;0.90;99.90;;;;;;7371305;32;20241;-59
2022/12/05 18:42:34;;;;;;;21.20;14.07;;;0.90;99.90;;;;;;7372520;32;20297;-60
2022/12/05 18:46:36;;;;;;;21.23;14.90;;;0.90;99.90;;;;;;7379088;32;20190;-59
2022/12/05 18:50:38;;;;;;;21.27;14.48;;;0.90;99.90;;;;;;7375184;32;20138;-60
2022/12/05 18:54:40;;;;;;;18.73;13.18;;;0.90;99.90;;;;;;7369519;32;20153;-60
2022/12/05 18:58:41;;;;;;;18.73;12.60;;;0.80;99.90;;;;;;7380110;32;20121;-60
2022/12/05 19:02:43;;;;;;;19.90;12.98;;;0.80;99.90;;;;;;7374762;32;20137;-62
2022/12/05 19:06:50;;;;;;;19.85;13.07;;;0.90;99.90;;;;;;7370186;32;20130;-62
2022/12/05 19:10:52;;;;;;;16.15;11.70;;;0.90;99.90;;;;;;7374673;32;20181;-62
2022/12/05 19:14:53;;;;;;;17.12;11.95;;;0.90;99.90;;;;;;7372502;32;20190;-61
2022/12/05 19:18:58;;;;;;;15.80;11.80;;;0.80;99.90;;;;;;7373621;32;20154;-61
2022/12/05 19:23:00;;;;;;;16.08;12.02;;;0.80;99.90;;;;;;7368412;32;20107;-60
2022/12/05 19:27:02;;;;;;;15.65;11.48;;;0.80;99.90;;;;;;7378568;32;20114;-61
2022/12/05 19:31:09;;;;;;;15.77;12.23;;;0.90;99.90;;;;;;7372718;32;20227;-60
2022/12/05 19:35:10;;;;;;;;;;;0.80;99.90;;;;;;7372416;32;20696;-62
2022/12/05 19:39:18;;;;;;;20.60;13.25;;;0.90;99.90;;;;;;7379911;32;20025;-63
2022/12/05 19:43:19;;;;;;;20.20;13.62;;;0.90;99.90;;;;;;7375917;32;20099;-61
2022/12/05 19:47:21;;;;;;;20.65;13.70;;;0.90;99.90;;;;;;7373207;32;20095;-61
2022/12/05 19:51:23;;;;;;;21.10;15.02;;;0.90;99.90;;;;;;7364403;32;20111;-62
2022/12/05 19:55:25;;;;;;;22.58;16.33;;;0.90;99.90;;;;;;7373979;32;20218;-60
2022/12/05 19:59:27;;;;;;;22.50;15.98;;;0.80;99.90;;;;;;7373630;32;20545;-60
2022/12/05 20:03:28;;;;;;;22.25;15.25;;;0.90;99.90;;;;;;7371958;32;20126;-62
2022/12/05 20:07:30;;;;;;;21.35;15.43;;;0.80;99.90;;;;;;7364823;32;20151;-61
2022/12/05 20:11:32;;;;;;;19.83;13.85;;;0.90;99.90;;;;;;7373976;32;20249;-61
2022/12/05 20:15:33;;;;;;;19.27;13.93;;;0.80;99.90;;;;;;7375872;32;20887;-60
2022/12/05 20:19:35;;;;;;;17.60;14.23;;;0.90;99.90;;;;;;7375506;32;20132;-61
2022/12/05 20:23:37;;;;;;;20.50;14.00;;;0.90;99.90;;;;;;7374807;32;20191;-61
2022/12/05 20:27:39;;;;;;;21.00;15.20;;;0.90;99.90;;;;;;7378915;32;20126;-60
2022/12/05 20:31:41;;;;;;;27.45;15.30;;;0.90;99.90;;;;;;7375905;32;20621;-61
2022/12/05 20:35:43;;;;;;;21.15;14.18;;;0.90;99.90;;;;;;7374682;32;20177;-61
2022/12/05 20:39:45;;;;;;;22.23;14.80;;;0.90;99.90;;;;;;7375553;32;20111;-62
2022/12/05 20:43:51;;;;;;;20.92;14.85;;;0.90;99.90;;;;;;7372885;32;20577;-61
2022/12/05 20:47:53;;;;;;;22.87;15.90;;;0.90;99.90;;;;;;7369086;32;20787;-61
2022/12/05 20:51:54;;;;;;;22.23;15.18;;;0.90;99.90;;;;;;7369701;32;20107;-60
2022/12/05 20:56:04;;;;;;;23.83;15.23;;;0.90;99.90;;;;;;7371830;32;20121;-61
2022/12/05 21:00:07;;;;;;;23.27;15.57;;;1.00;99.90;;;;;;7372938;32;20103;-59
2022/12/05 21:04:10;;;;;;;22.27;15.52;;;0.90;99.90;;;;;;7373169;32;20111;-60
2022/12/05 21:08:11;;;;;;;22.52;14.18;;;0.90;99.90;;;;;;7368685;32;20867;-60
2022/12/05 21:12:13;;;;;;;20.70;14.15;;;0.90;99.90;;;;;;7370458;32;20197;-59
2022/12/05 21:16:20;;;;;;;20.12;14.87;;;0.90;99.90;;;;;;7371349;32;20459;-60
2022/12/05 21:20:22;;;;;;;25.55;16.40;;;0.90;99.90;;;;;;7369921;32;20466;-59
2022/12/05 21:24:23;;;;;;;20.95;14.73;;;0.90;99.90;;;;;;7369594;32;20207;-60